Maui, HI

11:26 AM HST on May 06, 2015 (GMT -1000)
Kehalani | | Change Station
CLOSE
Current Station
Personal Weather Station
Location: Wailuku, HI
Elevation: 358 ft
Nearby Weather Stations
Active Advisory: High Surf Advisory

Elev 358 ft 20.87 °N, 156.50 °W | Updated 13 minutes ago

Scattered Clouds
Scattered Clouds
77.7 °F
Feels Like 79 °F
N
9.4
Wind Variable Wind from SSW

Today
High -- | Low -- °F
--% Chance of Precip.
Yesterday
High -- | Low -- °F
Precip. -- in
5:52 AM 6:52 PM
Waning Gibbous, 92% visible
Pressure 30.06 in
Visibility 10.0 miles
Clouds Scattered Clouds 4500 ft
Scattered Clouds 6000 ft
Heat Index 79 °F
Dew Point 63 °F
Humidity 60%
Rainfall 0.00 in
Snow Depth Not available.
UV 9 out of 12
Pollen Not available.
Air Quality Not available.
Flu Activity Regional
METAR PHOG 062054Z 07016G25KT 10SM SCT045 SCT060 27/18 A3004 RMK AO2 PK WND 07027/2035 SLP178 60000 T02720183 58001

More Conditions Fewer Conditions

Pressure 30.06 in
Visibility 10.0 miles
Clouds Scattered Clouds 4500 ft
Scattered Clouds 6000 ft
Heat Index 79 °F
Dew Point 63 °F
Humidity 60%
Rainfall 0.00 in
Snow Depth Not available.
UV 9 out of 12
Pollen Not available.
Air Quality Not available.
Flu Activity Regional
METAR PHOG 062054Z 07016G25KT 10SM SCT045 SCT060 27/18 A3004 RMK AO2 PK WND 07027/2035 SLP178 60000 T02720183 58001

More Conditions Fewer Conditions

10-Day Weather Forecast

Almanac

Astronomy

May. 06, 2015 Rise Set
Actual Time
Civil Twilight
Nautical Twilight
Astronomical Twilight
Moon
Length of Visible Light
Length of Day
Tomorrow will be .
, % of the Moon is Illuminated

Today's Extremes

State Highs State Lows

Community

WunderPhotos

Upload Photos

1,819,021 photos uploaded!

WunderBlogs® & News

Nearby

Air Quality

  Air Quality AQ Index Pollutant
Not available.

Snow Depth

Station Depth Elevation

Earthquake Activity

City Distance Mag. Time & Date
Minimum magnitude displayed is 2.5.

Coastal Water Temperatures

Place Temperature

Stations

Nearby Weather Stations

Station Location Temp. Windchill Dew Point Humidity Wind Precip. Elev Updated Type
                   
High Surf Advisory
Statement as of 3:16 AM HST on May 06, 2015

... High surf advisory remains in effect until 10 am HST
Thursday...

A high surf advisory remains in effect until 10 am HST Thursday.

* Surf... 5 to 8 feet for south facing shores.

* Timing... surf peaking today and tonight... then gradually
diminishing Thursday and Friday.

* Impacts... moderate... expect strong breaking waves... shore
break... and strong longshore and rip currents making swimming
difficult and dangerous.

Precautionary/preparedness actions...

Beachgoers... swimmers... and surfers should heed all advice given
by ocean safety officials and exercise caution. If in doubt... do
not go out. Boaters should expect recreational surfers and body
boarders utilizing Harbor channels to access surfing areas.